Thunder radar more information blitzortung!


Radar de pluja more information rain snow radar


Visita la nostra xarxa de llocs de meteo:

Template documentation
and downloads

And another site



No particular awareness of the weather is required.    There are no Weather-warnings

Pagina Historial Weather Underground text

Diari Resum Juny 25, 2017 Unitats:  Imperial    Mètric   Tant
« Previous Dia
SegĂźent Dia »
Diari Setmana Mensual Anual Personalitzada
  Maxima: Minima: Media:
Temperatura: TemperatureC °F 21.2 °F 25.9 °F
Punt de rosada: DewpointC °F 17.0 °F 18.8 °F
Humitat: Humidity % 50 % 66 %
Wind Speed: WindSpeedKMH mph 0.0 mph 5.3 mph
RĂ fegues de vent: WindSpeedGustKMH mph - -
Vent:- - South
Pression baro: PressurehPa in 1010.7 in -
Precipitacions: 0.0 in    
Historical Graphs
 
 
Dades de taula per Juny 25, 2017
Temps Temperatura Punt de rosada Pression baro Vent Wind Speed RĂ fegues de vent Humitat Rainfall Rate (Hourly)
TemperatureC °F DewpointC °F PressurehPa in Calm     Humidity % HourlyPrecipMM in
00:02 23.3 °F 17.7 °F 1013.8 in SW 3.7 mph 3.7 mph 71 % 0.0 in
00:07 23.3 °F 17.7 °F 1013.8 in WSW 3.7 mph 3.7 mph 71 % 0.0 in
05:20 23.1 °F 19.7 °F 1015.8 in ESE 4.8 mph 9.7 mph 81 % 0.0 in
05:30 23.2 °F 19.8 °F 1015.8 in ESE 4.8 mph 6.4 mph 81 % 0.0 in
05:40 23.2 °F 19.8 °F 1015.8 in East 3.2 mph 8.0 mph 81 % 0.0 in
05:50 23.2 °F 19.8 °F 1015.8 in East 9.7 mph 9.7 mph 81 % 0.0 in
06:00 23.4 °F 19.8 °F 1015.8 in East 8.0 mph 9.7 mph 80 % 0.0 in
06:10 23.5 °F 19.8 °F 1015.8 in East 1.6 mph 6.4 mph 80 % 0.0 in
06:20 23.6 °F 19.9 °F 1015.8 in ESE 4.8 mph 8.0 mph 80 % 0.0 in
06:30 24.0 °F 19.9 °F 1016.8 in SE 1.6 mph 3.2 mph 78 % 0.0 in
06:40 24.0 °F 19.9 °F 1015.8 in ESE 3.2 mph 8.0 mph 78 % 0.0 in
11:47 24.4 °F 20.3 °F 1015.8 in SSW 1.9 mph   78 % 0.0 in
11:52 24.4 °F 20.1 °F 1016.8 in ESE 5.6 mph 5.6 mph 77 % 0.0 in
11:57 24.5 °F 20.2 °F 1016.8 in ESE 4.7 mph   77 % 0.0 in
12:02 24.4 °F 20.1 °F 1017.8 in East 5.6 mph 5.6 mph 77 % 0.0 in
12:07 24.4 °F 20.1 °F 1017.8 in East 7.9 mph 7.9 mph 77 % 0.0 in
12:12 24.5 °F 20.0 °F 1017.8 in South 7.4 mph 7.4 mph 76 % 0.0 in
12:17 24.7 °F 20.2 °F 1017.8 in ESE 9.5 mph 9.5 mph 76 % 0.0 in
12:22 24.9 °F 20.2 °F 1017.8 in SE 5.6 mph 5.6 mph 75 % 0.0 in
12:27 24.8 °F 20.1 °F 1017.8 in ESE 5.6 mph 5.6 mph 75 % 0.0 in
12:32 25.0 °F 20.1 °F 1016.8 in NE 3.7 mph 3.7 mph 74 % 0.0 in
12:37 25.1 °F 19.9 °F 1016.8 in ESE 9.3 mph 9.3 mph 73 % 0.0 in
12:42 25.3 °F 20.1 °F 1016.8 in ENE 11.1 mph 11.1 mph 73 % 0.0 in
12:47 25.7 °F 20.3 °F 1015.8 in South 5.6 mph 5.6 mph 72 % 0.0 in
12:52 25.5 °F 19.8 °F 1015.8 in NE 7.4 mph 7.4 mph 71 % 0.0 in
12:57 25.3 °F 19.7 °F 1015.8 in NW 5.6 mph 5.6 mph 71 % 0.0 in
13:02 25.4 °F 19.8 °F 1016.8 in South 5.6 mph 5.6 mph 71 % 0.0 in
13:07 25.6 °F 19.9 °F 1016.8 in SSE 3.2 mph   71 % 0.0 in
13:12 26.2 °F 20.5 °F 1016.8 in South 3.7 mph 3.7 mph 71 % 0.0 in
13:17 26.7 °F 20.8 °F 1016.8 in SW 3.9 mph 3.9 mph 70 % 0.0 in
13:22 26.8 °F 20.6 °F 1016.8 in SW 5.6 mph 5.6 mph 69 % 0.0 in
13:27 26.7 °F 20.3 °F 1016.8 in SW 7.4 mph 7.4 mph 68 % 0.0 in
13:32 27.0 °F 20.3 °F 1016.8 in SW 6.1 mph 6.1 mph 67 % 0.0 in
13:37 27.0 °F 20.1 °F 1016.8 in West 9.3 mph 9.3 mph 66 % 0.0 in
13:42 26.8 °F 19.9 °F 1016.8 in East 4.2 mph 4.2 mph 66 % 0.0 in
13:47 26.5 °F 19.6 °F 1016.8 in East 7.4 mph 7.4 mph 66 % 0.0 in
13:52 26.9 °F 20.0 °F 1016.8 in ESE 5.6 mph 5.6 mph 66 % 0.0 in
13:57 27.6 °F 20.4 °F 1016.8 in South 3.7 mph 3.7 mph 65 % 0.0 in
14:02 27.7 °F 20.3 °F 1015.8 in WSW 6.1 mph 6.1 mph 64 % 0.0 in
14:07 27.9 °F 20.4 °F 1015.8 in WSW 1.9 mph 1.9 mph 64 % 0.0 in
14:12 27.9 °F 19.9 °F 1015.8 in South 7.4 mph 7.4 mph 62 % 0.0 in
14:17 28.4 °F 20.7 °F 1015.8 in SW 5.6 mph 5.6 mph 63 % 0.0 in
14:22 28.5 °F 20.5 °F 1015.8 in SSE 11.1 mph 11.1 mph 62 % 0.0 in
14:27 28.3 °F 20.3 °F 1015.8 in SW 3.7 mph 3.7 mph 62 % 0.0 in
14:32 28.2 °F 20.2 °F 1015.8 in South 7.4 mph 7.4 mph 62 % 0.0 in
14:37 28.3 °F 20.3 °F 1015.8 in SSE 5.6 mph 5.6 mph 62 % 0.0 in
14:42 28.3 °F 20.1 °F 1015.8 in SW 9.3 mph 9.3 mph 61 % 0.0 in
14:47 28.6 °F 20.3 °F 1015.8 in SW 7.4 mph 7.4 mph 61 % 0.0 in
14:52 29.1 °F 20.3 °F 1015.8 in WSW 5.6 mph 5.6 mph 59 % 0.0 in
14:57 29.5 °F 20.7 °F 1015.8 in SW 4.7 mph 4.7 mph 59 % 0.0 in
15:02 29.0 °F 19.9 °F 1014.8 in SW 7.4 mph 7.4 mph 58 % 0.0 in
15:07 29.5 °F 20.4 °F 1014.8 in SSW 7.4 mph 7.4 mph 58 % 0.0 in
15:12 29.3 °F 19.6 °F 1014.8 in South 3.7 mph 3.9 mph 56 % 0.0 in
15:17 29.3 °F 19.9 °F 1014.8 in SSW 3.7 mph 3.7 mph 57 % 0.0 in
15:22 29.5 °F 20.1 °F 1014.8 in South 5.6 mph 5.6 mph 57 % 0.0 in
15:27 29.5 °F 20.1 °F 1014.8 in SW 9.3 mph 9.3 mph 57 % 0.0 in
15:32 29.0 °F 19.6 °F 1014.8 in SSW 3.7 mph 3.9 mph 57 % 0.0 in
15:37 29.3 °F 19.9 °F 1014.8 in SW 11.1 mph 11.1 mph 57 % 0.0 in
15:42 29.4 °F 20.0 °F 1014.8 in WSW 16.7 mph 16.7 mph 57 % 0.0 in
15:47 29.5 °F 20.1 °F 1014.8 in SW 5.6 mph 5.6 mph 57 % 0.0 in
15:52 29.6 °F 19.9 °F 1014.8 in West 13.0 mph 13.0 mph 56 % 0.0 in
15:57 30.0 °F 20.0 °F 1014.8 in WSW 13.0 mph 13.0 mph 55 % 0.0 in
16:02 30.1 °F 20.1 °F 1014.8 in South 7.4 mph 7.4 mph 55 % 0.0 in
16:07 29.9 °F 19.9 °F 1014.8 in SSW 14.8 mph 14.8 mph 55 % 0.0 in
16:12 29.5 °F 19.5 °F 1013.8 in SSE 5.6 mph 5.6 mph 55 % 0.0 in
16:17 29.4 °F 19.4 °F 1013.8 in SW 5.6 mph 5.6 mph 55 % 0.0 in
16:22 28.9 °F 19.2 °F 1013.8 in WSW 7.4 mph 7.4 mph 56 % 0.0 in
16:27 29.0 °F 19.1 °F 1013.8 in WSW 4.7 mph 4.7 mph 55 % 0.0 in
16:32 29.0 °F 19.3 °F 1013.8 in SSW 3.7 mph 3.7 mph 56 % 0.0 in
16:37 29.0 °F 19.1 °F 1013.8 in SW 5.8 mph 5.8 mph 55 % 0.0 in
16:42 29.3 °F 19.3 °F 1013.8 in SSW 5.6 mph 5.6 mph 55 % 0.0 in
16:47 29.7 °F 19.7 °F 1013.8 in SW 6.1 mph 6.1 mph 55 % 0.0 in
16:52 30.2 °F 19.9 °F 1013.8 in West 3.9 mph 3.9 mph 54 % 0.0 in
16:57 30.5 °F 20.2 °F 1013.8 in South 9.3 mph 9.3 mph 54 % 0.0 in
17:02 30.7 °F 20.0 °F 1013.8 in SW 5.8 mph 5.8 mph 53 % 0.0 in
17:07 30.9 °F 20.2 °F 1013.8 in SW 7.4 mph 7.4 mph 53 % 0.0 in
17:12 30.7 °F 19.7 °F 1013.8 in SW 9.3 mph 9.3 mph 52 % 0.0 in
17:17 30.7 °F 19.4 °F 1013.8 in SW 3.7 mph 3.7 mph 51 % 0.0 in
17:22 30.4 °F 19.1 °F 1013.8 in SW 5.6 mph 5.6 mph 51 % 0.0 in
17:27 30.0 °F 18.8 °F 1012.8 in SW 3.7 mph 3.7 mph 51 % 0.0 in
17:32 29.9 °F 18.7 °F 1012.8 in SSW 6.9 mph 6.9 mph 51 % 0.0 in
17:37 29.7 °F 18.2 °F 1012.8 in West 7.4 mph 7.4 mph 50 % 0.0 in
17:38 29.7 °F 18.2 °F 1012.8 in SE 7.4 mph 7.4 mph 50 % 0.0 in
17:43 29.3 °F 18.1 °F 1012.8 in ESE 7.6 mph 7.6 mph 51 % 0.0 in
17:48 29.3 °F 18.1 °F 1012.8 in SW 3.2 mph 3.2 mph 51 % 0.0 in
17:53 29.4 °F 18.2 °F 1012.8 in SW 13.0 mph 13.0 mph 51 % 0.0 in
17:54 29.3 °F 17.8 °F 1012.8 in WSW 13.0 mph 13.0 mph 50 % 0.0 in
17:59 29.4 °F 18.2 °F 1011.7 in SW 7.4 mph 7.4 mph 51 % 0.0 in
18:04 29.6 °F 18.4 °F 1011.7 in SSW 13.0 mph 13.0 mph 51 % 0.0 in
18:09 29.3 °F 18.1 °F 1011.7 in SSW 11.1 mph 11.1 mph 51 % 0.0 in
18:14 29.1 °F 17.6 °F 1012.8 in West 9.3 mph 9.3 mph 50 % 0.0 in
18:19 29.2 °F 17.7 °F 1012.8 in WSW 6.1 mph 6.1 mph 50 % 0.0 in
18:24 29.3 °F 17.8 °F 1012.8 in SW 7.4 mph 7.4 mph 50 % 0.0 in
18:29 29.2 °F 17.7 °F 1011.7 in WSW 7.4 mph 7.4 mph 50 % 0.0 in
18:34 29.1 °F 17.6 °F 1011.7 in West 7.4 mph 7.4 mph 50 % 0.0 in
18:39 28.9 °F 17.7 °F 1011.7 in West 6.1 mph 6.1 mph 51 % 0.0 in
18:44 28.8 °F 17.3 °F 1011.7 in WSW 3.7 mph   50 % 0.0 in
18:49 28.8 °F 17.3 °F 1011.7 in WSW 5.6 mph 5.6 mph 50 % 0.0 in
18:54 28.6 °F 17.2 °F 1011.7 in SW 5.6 mph 5.6 mph 50 % 0.0 in
18:59 28.5 °F 17.4 °F 1011.7 in SW 3.9 mph 3.9 mph 51 % 0.0 in
19:04 28.5 °F 17.4 °F 1011.7 in WSW 7.9 mph 7.9 mph 51 % 0.0 in
19:09 28.3 °F 17.2 °F 1011.7 in SW 9.3 mph 9.3 mph 51 % 0.0 in
19:10 23.2 °F 18.9 °F 1012.8 in ENE 3.2 mph 4.8 mph 77 % 0.0 in
19:14 28.2 °F 17.4 °F 1010.7 in SSW 5.6 mph 5.6 mph 52 % 0.0 in
19:19 27.9 °F 17.1 °F 1010.7 in SW 7.4 mph 7.4 mph 52 % 0.0 in
19:20 23.0 °F 18.6 °F 1012.8 in ESE 3.2 mph 3.2 mph 76 % 0.0 in
19:24 27.8 °F 17.3 °F 1010.7 in SW 6.4 mph 6.4 mph 53 % 0.0 in
19:29 27.5 °F 17.1 °F 1011.7 in SSW 7.4 mph 7.4 mph 53 % 0.0 in
19:30 22.8 °F 18.6 °F 1013.8 in SSW 1.6 mph 3.2 mph 77 % 0.0 in
19:34 27.4 °F 17.3 °F 1011.7 in WSW 3.9 mph   54 % 0.0 in
19:39 27.3 °F 17.2 °F 1011.7 in SSW 9.3 mph 9.3 mph 54 % 0.0 in
19:40 22.8 °F 18.6 °F 1012.8 in SW 3.2 mph 6.4 mph 77 % 0.0 in
19:44 27.1 °F 17.0 °F 1011.7 in SSW 7.4 mph 7.4 mph 54 % 0.0 in
19:49 27.1 °F 17.0 °F 1011.7 in SW 7.4 mph 7.4 mph 54 % 0.0 in
19:50 22.7 °F 18.7 °F 1012.8 in Calm   3.2 mph 78 % 0.0 in
19:54 26.9 °F 17.1 °F 1011.7 in SW 7.4 mph 7.4 mph 55 % 0.0 in
19:59 26.8 °F 17.3 °F 1011.7 in SW 6.9 mph 6.9 mph 56 % 0.0 in
20:00 22.7 °F 18.9 °F 1012.8 in SW 3.2 mph 3.2 mph 79 % 0.0 in
20:04 26.7 °F 17.2 °F 1011.7 in SSW 7.4 mph 7.4 mph 56 % 0.0 in
20:09 26.5 °F 17.0 °F 1011.7 in SW 9.3 mph 9.3 mph 56 % 0.0 in
20:10 22.7 °F 18.7 °F 1012.8 in SW 1.6 mph 3.2 mph 78 % 0.0 in
20:14 26.4 °F 17.2 °F 1011.7 in West 7.4 mph 7.4 mph 57 % 0.0 in
20:19 26.4 °F 17.2 °F 1011.7 in SW 3.9 mph 3.9 mph 57 % 0.0 in
20:20 22.6 °F 18.8 °F 1012.8 in Calm   3.2 mph 79 % 0.0 in
20:24 26.4 °F 17.4 °F 1011.7 in SW 3.7 mph 3.7 mph 58 % 0.0 in
20:29 26.2 °F 17.3 °F 1011.7 in SSW 3.7 mph 3.7 mph 58 % 0.0 in
20:30 22.5 °F 18.7 °F 1011.7 in WSW 1.6 mph 3.2 mph 79 % 0.0 in
20:34 26.2 °F 17.3 °F 1011.7 in WSW 1.9 mph   58 % 0.0 in
20:39 26.1 °F 17.4 °F 1011.7 in South 3.7 mph   59 % 0.0 in
20:40 22.5 °F 18.7 °F 1012.8 in WSW 3.2 mph 3.2 mph 79 % 0.0 in
20:44 26.0 °F 17.4 °F 1011.7 in Calm     59 % 0.0 in
20:49 25.9 °F 17.3 °F 1011.7 in SW 3.7 mph 3.7 mph 59 % 0.0 in
20:50 22.5 °F 18.9 °F 1012.8 in West 1.6 mph 3.2 mph 80 % 0.0 in
20:54 25.7 °F 17.3 °F 1011.7 in SW 3.7 mph 3.7 mph 60 % 0.0 in
20:59 25.6 °F 17.3 °F 1011.7 in WSW 2.3 mph   60 % 0.0 in
21:00 22.5 °F 18.9 °F 1012.8 in Calm   1.6 mph 80 % 0.0 in
21:04 25.5 °F 17.2 °F 1011.7 in SW 1.9 mph   60 % 0.0 in
21:09 25.4 °F 17.3 °F 1011.7 in Calm     61 % 0.0 in
21:10 22.5 °F 19.1 °F 1011.7 in Calm   1.6 mph 81 % 0.0 in
21:14 25.1 °F 17.8 °F 1011.7 in ESE 5.6 mph 5.6 mph 64 % 0.0 in
21:19 25.0 °F 17.9 °F 1011.7 in East 3.7 mph 3.7 mph 65 % 0.0 in
21:20 22.4 °F 19.2 °F 1011.7 in ENE 1.6 mph 3.2 mph 82 % 0.0 in
21:24 24.8 °F 18.3 °F 1011.7 in ENE 5.6 mph 5.6 mph 67 % 0.0 in
21:29 24.6 °F 18.3 °F 1011.7 in ENE 7.4 mph 7.4 mph 68 % 0.0 in
21:30 22.2 °F 19.0 °F 1011.7 in Calm   3.2 mph 82 % 0.0 in
21:34 24.5 °F 18.2 °F 1011.7 in ENE 7.4 mph 7.4 mph 68 % 0.0 in
21:39 24.3 °F 18.2 °F 1011.7 in East 7.4 mph 7.4 mph 69 % 0.0 in
21:40 22.1 °F 18.9 °F 1011.7 in Calm   3.2 mph 82 % 0.0 in
21:44 24.2 °F 18.4 °F 1011.7 in East 7.4 mph 7.4 mph 70 % 0.0 in
21:49 24.1 °F 18.7 °F 1011.7 in ENE 9.3 mph 9.3 mph 72 % 0.0 in
21:50 21.8 °F 18.6 °F 1011.7 in SW 3.2 mph 4.8 mph 82 % 0.0 in
21:54 24.0 °F 18.7 °F 1011.7 in ENE 13.0 mph 13.0 mph 72 % 0.0 in
21:56 24.0 °F 18.4 °F 1011.7 in ESE 11.1 mph 11.1 mph 71 % 0.0 in
22:00 21.8 °F 18.6 °F 1011.7 in WSW 3.2 mph 3.2 mph 82 % 0.0 in
22:01 23.9 °F 19.0 °F 1011.7 in ENE 9.3 mph 9.3 mph 74 % 0.0 in
22:06 23.8 °F 18.9 °F 1011.7 in ESE 5.6 mph 5.6 mph 74 % 0.0 in
22:10 21.8 °F 18.8 °F 1012.8 in WSW 1.6 mph 3.2 mph 83 % 0.0 in
22:11 23.8 °F 18.9 °F 1011.7 in East 3.9 mph 3.9 mph 74 % 0.0 in
22:16 23.8 °F 18.7 °F 1011.7 in Calm     73 % 0.0 in
22:20 21.8 °F 18.8 °F 1012.8 in WSW 1.6 mph 3.2 mph 83 % 0.0 in
22:21 23.8 °F 18.9 °F 1011.7 in South 3.7 mph   74 % 0.0 in
22:26 23.8 °F 18.7 °F 1011.7 in WSW 1.9 mph 2.3 mph 73 % 0.0 in
22:30 21.8 °F 18.8 °F 1012.8 in WSW 3.2 mph 4.8 mph 83 % 0.0 in
22:31 23.8 °F 18.7 °F 1012.8 in SW 3.7 mph 3.7 mph 73 % 0.0 in
22:36 23.7 °F 18.6 °F 1012.8 in WSW 3.7 mph 3.7 mph 73 % 0.0 in
22:40 21.9 °F 19.1 °F 1011.7 in Calm   3.2 mph 84 % 0.0 in
22:41 23.7 °F 18.8 °F 1012.8 in Calm     74 % 0.0 in
22:46 23.8 °F 18.9 °F 1012.8 in NNE 1.9 mph   74 % 0.0 in
22:50 21.8 °F 19.2 °F 1011.7 in ESE 3.2 mph 3.2 mph 85 % 0.0 in
22:51 23.8 °F 18.9 °F 1012.8 in West 1.9 mph   74 % 0.0 in
22:56 23.8 °F 18.9 °F 1012.8 in West 3.7 mph 3.7 mph 74 % 0.0 in
23:00 21.5 °F 18.7 °F 1011.7 in South 3.2 mph 4.8 mph 84 % 0.0 in
23:01 23.8 °F 18.9 °F 1013.8 in Calm     74 % 0.0 in
23:06 23.8 °F 18.9 °F 1013.8 in NNW 3.7 mph 3.7 mph 74 % 0.0 in
23:10 21.3 °F 18.7 °F 1010.7 in SW 3.2 mph 3.2 mph 85 % 0.0 in
23:11 23.8 °F 18.9 °F 1013.8 in WNW 1.9 mph   74 % 0.0 in
23:16 23.7 °F 18.8 °F 1012.8 in East 1.9 mph 1.9 mph 74 % 0.0 in
23:20 21.2 °F 18.6 °F 1010.7 in SW 1.6 mph 3.2 mph 85 % 0.0 in
23:21 23.7 °F 18.8 °F 1012.8 in ENE 2.6 mph   74 % 0.0 in
23:26 23.7 °F 18.8 °F 1012.8 in East 9.3 mph 9.3 mph 74 % 0.0 in
23:30 21.2 °F 18.6 °F 1011.7 in SW 1.6 mph 3.2 mph 85 % 0.0 in
23:31 23.6 °F 18.7 °F 1012.8 in WSW 3.7 mph 3.7 mph 74 % 0.0 in
23:36 23.6 °F 18.7 °F 1012.8 in ENE 1.9 mph   74 % 0.0 in
23:40 21.2 °F 18.8 °F 1010.7 in Calm   3.2 mph 86 % 0.0 in
23:41 23.6 °F 18.9 °F 1012.8 in NE 3.9 mph 3.9 mph 75 % 0.0 in
23:46 23.5 °F 18.8 °F 1012.8 in NE 1.9 mph 1.9 mph 75 % 0.0 in
23:50 21.3 °F 18.7 °F 1010.7 in West 3.2 mph 4.8 mph 85 % 0.0 in
23:51 23.3 °F 18.8 °F 1012.8 in ENE 3.7 mph 3.7 mph 76 % 0.0 in
23:56 23.3 °F 18.8 °F 1012.8 in NE 1.9 mph   76 % 0.0 in
Meteo Sesrovires
Elogis d' Weather Underground - 1.5 mb

Guio original per  Jim McMurry - jmcmurry@mwt.net Adaptat per a la plantilla per  Wim van der Kuil - Leuven-Template.eu

Trobareu la nostra informacio del temps tambe a:

Weather Underground

AWEKAS